RJER(METAR)
08/23 15:00
RJER 230600Z 09020KT 9999 RA FEW005 BKN010 15/14 Q1006 RMK A2971=
戻る
トップページへ戻る
IMOC Co,.Ltd.